createdAt,value
2022-10-11T00:01:35.181Z,3.38
2022-10-11T00:04:02.425Z,3.20
2022-10-11T00:06:29.664Z,3.10
2022-10-11T00:08:57.120Z,3.15
2022-10-11T00:11:24.211Z,3.17
2022-10-11T00:13:51.325Z,3.40
2022-10-11T00:16:18.460Z,3.20
2022-10-11T00:18:45.583Z,3.85
2022-10-11T00:21:14.302Z,3.30
2022-10-11T00:23:41.809Z,3.13
2022-10-11T00:26:10.026Z,2.72
2022-10-11T00:28:37.803Z,3.03
2022-10-11T00:31:09.351Z,3.05
2022-10-11T00:33:36.540Z,3.40
2022-10-11T00:36:04.240Z,3.20
2022-10-11T00:38:32.045Z,3.10
2022-10-11T00:40:59.942Z,2.80
2022-10-11T00:43:29.927Z,2.97
2022-10-11T00:45:57.019Z,3.22
2022-10-11T00:48:44.492Z,2.92
2022-10-11T00:51:17.299Z,3.22
2022-10-11T00:53:44.630Z,2.90
2022-10-11T00:56:15.925Z,3.75
2022-10-11T00:58:43.335Z,2.90
2022-10-11T01:01:10.519Z,2.95
2022-10-11T01:03:38.575Z,2.90
2022-10-11T01:06:06.076Z,3.05
2022-10-11T01:08:33.574Z,3.20
2022-10-11T01:11:00.918Z,3.30
2022-10-11T01:13:27.987Z,3.47
2022-10-11T01:16:13.537Z,3.70
2022-10-11T01:18:43.772Z,3.30
2022-10-11T01:21:18.370Z,3.42
2022-10-11T01:23:57.701Z,3.95
2022-10-11T01:26:43.770Z,3.60
2022-10-11T01:29:26.262Z,4.10
2022-10-11T01:31:56.690Z,3.50
2022-10-11T01:34:26.800Z,3.60
2022-10-11T01:36:59.677Z,3.65
2022-10-11T01:39:29.663Z,4.00
2022-10-11T01:41:58.451Z,3.78
2022-10-11T01:44:26.885Z,3.53
2022-10-11T01:46:54.140Z,3.53
2022-10-11T01:49:21.359Z,4.38
2022-10-11T01:52:00.367Z,4.60
2022-10-11T01:55:03.943Z,3.67
2022-10-11T01:57:48.245Z,3.95
2022-10-11T02:00:26.231Z,4.05
2022-10-11T02:02:58.583Z,4.10
2022-10-11T02:05:30.226Z,4.00
2022-10-11T02:08:05.652Z,3.78
2022-10-11T02:10:40.566Z,3.42
2022-10-11T02:13:19.289Z,3.40
2022-10-11T02:15:47.727Z,4.30
2022-10-11T02:18:17.611Z,4.00
2022-10-11T02:20:45.957Z,4.13
2022-10-11T02:23:15.884Z,3.70
2022-10-11T02:25:43.498Z,3.97
2022-10-11T02:28:13.260Z,3.80
2022-10-11T02:30:41.446Z,4.63
2022-10-11T02:33:10.559Z,4.43
2022-10-11T02:35:41.297Z,4.25
2022-10-11T02:38:27.340Z,3.80
2022-10-11T02:41:00.414Z,4.13
2022-10-11T02:43:32.407Z,3.88
2022-10-11T02:46:00.900Z,3.80
2022-10-11T02:48:29.360Z,4.47
2022-10-11T02:50:57.262Z,4.18
2022-10-11T02:53:25.198Z,3.88
2022-10-11T02:55:53.042Z,3.20
2022-10-11T02:58:20.501Z,3.65
2022-10-11T03:00:47.611Z,3.70
2022-10-11T03:03:14.965Z,4.03
2022-10-11T03:05:43.508Z,3.83
2022-10-11T03:08:14.944Z,4.13
2022-10-11T03:10:42.127Z,4.13
2022-10-11T03:13:09.262Z,3.80
2022-10-11T03:15:36.337Z,3.58
2022-10-11T03:18:03.431Z,4.55
2022-10-11T03:20:30.505Z,5.07
2022-10-11T03:22:57.638Z,3.92
2022-10-11T03:25:24.750Z,3.90
2022-10-11T03:27:52.281Z,4.30
2022-10-11T03:30:20.121Z,3.80
2022-10-11T03:32:47.263Z,3.72
2022-10-11T03:35:14.590Z,4.05
2022-10-11T03:37:41.728Z,3.75
2022-10-11T03:40:09.201Z,4.03
2022-10-11T03:42:36.525Z,4.07
2022-10-11T03:45:07.926Z,4.15
2022-10-11T03:47:35.896Z,3.50
2022-10-11T03:50:03.094Z,3.60
2022-10-11T03:52:30.170Z,3.40
2022-10-11T03:54:57.531Z,3.47
2022-10-11T03:57:24.707Z,3.42
2022-10-11T03:59:51.839Z,3.35
2022-10-11T04:02:19.000Z,3.45
2022-10-11T04:04:46.099Z,3.00
2022-10-11T04:07:13.185Z,3.03
2022-10-11T04:09:40.299Z,3.53
2022-10-11T04:12:07.482Z,3.30
2022-10-11T04:14:34.583Z,2.95
2022-10-11T04:17:02.036Z,3.38
2022-10-11T04:19:29.163Z,3.00
2022-10-11T04:21:56.283Z,3.00
2022-10-11T04:24:23.380Z,3.25
2022-10-11T04:26:50.522Z,3.10
2022-10-11T04:29:17.591Z,3.13
2022-10-11T04:31:44.713Z,2.90
2022-10-11T04:34:11.850Z,3.28
2022-10-11T04:36:39.110Z,3.10
2022-10-11T04:39:06.766Z,3.35
2022-10-11T04:41:34.176Z,3.40
2022-10-11T04:44:01.917Z,3.30
2022-10-11T04:46:29.385Z,3.22
2022-10-11T04:48:56.754Z,3.38
2022-10-11T04:51:24.743Z,3.53
2022-10-11T04:53:51.927Z,3.40
2022-10-11T04:56:19.135Z,3.30
2022-10-11T04:58:51.930Z,3.03
2022-10-11T05:01:19.002Z,3.50
2022-10-11T05:03:46.173Z,3.92
2022-10-11T05:06:13.908Z,4.10
2022-10-11T05:08:41.436Z,3.58
2022-10-11T05:11:14.011Z,3.15
2022-10-11T05:13:42.872Z,3.50
2022-10-11T05:16:11.353Z,3.30
2022-10-11T05:18:39.006Z,3.55
2022-10-11T05:21:25.571Z,3.45
2022-10-11T05:23:53.607Z,3.20
2022-10-11T05:26:21.080Z,3.08
2022-10-11T05:28:48.442Z,3.88
2022-10-11T05:31:16.251Z,3.17
2022-10-11T05:33:43.431Z,2.90
2022-10-11T05:36:10.648Z,3.50
2022-10-11T05:38:37.968Z,2.83
2022-10-11T05:41:05.251Z,3.55
2022-10-11T05:43:32.602Z,3.25
2022-10-11T05:45:59.730Z,3.10
2022-10-11T05:48:28.512Z,3.33
2022-10-11T05:51:03.263Z,3.20
2022-10-11T05:53:30.998Z,2.80
2022-10-11T05:55:58.658Z,3.10
2022-10-11T05:58:25.981Z,3.05
2022-10-11T06:00:53.578Z,3.13
2022-10-11T06:03:21.098Z,3.50
2022-10-11T06:05:48.347Z,3.30
2022-10-11T06:08:16.254Z,3.63
2022-10-11T06:10:44.741Z,3.45
2022-10-11T06:13:11.923Z,3.53
2022-10-11T06:15:40.311Z,4.18
2022-10-11T06:18:07.543Z,3.90
2022-10-11T06:20:34.748Z,3.63
2022-10-11T06:23:01.859Z,3.75
2022-10-11T06:25:29.041Z,3.53
2022-10-11T06:27:56.238Z,3.42
2022-10-11T06:30:23.441Z,4.40
2022-10-11T06:32:50.572Z,4.10
2022-10-11T06:35:17.763Z,3.63
2022-10-11T06:37:44.885Z,3.83
2022-10-11T06:40:12.530Z,4.00
2022-10-11T06:42:39.646Z,3.55
2022-10-11T06:45:07.028Z,4.07
2022-10-11T06:47:34.127Z,4.05
2022-10-11T06:50:01.268Z,3.70
2022-10-11T06:52:28.391Z,3.85
2022-10-11T06:54:55.503Z,4.05
2022-10-11T06:57:22.630Z,3.65
2022-10-11T06:59:49.807Z,3.70
2022-10-11T07:02:16.902Z,3.33
2022-10-11T07:04:44.002Z,3.65
2022-10-11T07:07:13.798Z,3.70
2022-10-11T07:09:41.252Z,3.30
2022-10-11T07:12:08.579Z,3.85
2022-10-11T07:14:35.768Z,3.47
2022-10-11T07:17:02.932Z,3.65
2022-10-11T07:19:30.083Z,3.60
2022-10-11T07:21:57.494Z,3.53
2022-10-11T07:24:24.589Z,3.47
2022-10-11T07:26:51.711Z,3.50
2022-10-11T07:29:18.842Z,3.45
2022-10-11T07:31:46.118Z,3.20
2022-10-11T07:34:13.636Z,4.05
2022-10-11T07:36:40.898Z,3.72
2022-10-11T07:39:09.033Z,3.83
2022-10-11T07:41:39.657Z,4.05
2022-10-11T07:44:09.008Z,4.38
2022-10-11T07:46:36.149Z,3.40
2022-10-11T07:49:03.234Z,3.53
2022-10-11T07:51:30.376Z,4.18
2022-10-11T07:53:57.728Z,4.25
2022-10-11T07:56:28.924Z,3.58
2022-10-11T07:58:57.897Z,3.83
2022-10-11T08:01:25.606Z,3.80
2022-10-11T08:03:53.321Z,4.00
2022-10-11T08:06:22.231Z,4.40
2022-10-11T08:08:49.976Z,3.53
2022-10-11T08:11:24.098Z,3.70
2022-10-11T08:13:51.286Z,4.90
2022-10-11T08:16:18.452Z,3.75
2022-10-11T08:18:45.759Z,3.72
2022-10-11T08:21:14.897Z,3.70
2022-10-11T08:23:42.116Z,4.50
2022-10-11T08:26:09.744Z,3.80
2022-10-11T08:28:37.071Z,3.65
2022-10-11T08:31:04.938Z,4.00
2022-10-11T08:33:32.130Z,3.55
2022-10-11T08:35:59.486Z,3.50
2022-10-11T08:38:26.585Z,3.90
2022-10-11T08:40:58.568Z,3.92
2022-10-11T08:43:44.201Z,4.43
2022-10-11T08:46:12.444Z,3.75
2022-10-11T08:48:42.547Z,3.78
2022-10-11T08:51:30.680Z,3.70
2022-10-11T08:54:18.032Z,3.88
2022-10-11T08:56:46.599Z,4.47
2022-10-11T08:59:13.695Z,4.43
2022-10-11T09:01:45.329Z,4.65
2022-10-11T09:04:16.841Z,4.25
2022-10-11T09:06:47.050Z,4.40
2022-10-11T09:09:29.763Z,4.22
2022-10-11T09:11:59.670Z,4.25
2022-10-11T09:14:41.811Z,3.75
2022-10-11T09:17:11.811Z,3.33
2022-10-11T09:19:53.974Z,3.97
2022-10-11T09:22:30.845Z,3.53
2022-10-11T09:25:16.926Z,3.95
2022-10-11T09:28:13.548Z,3.65
2022-10-11T09:30:51.514Z,3.80
2022-10-11T09:33:18.595Z,3.63
2022-10-11T09:35:47.776Z,3.55
2022-10-11T09:38:19.359Z,4.00
2022-10-11T09:40:52.679Z,3.63
2022-10-11T09:43:20.024Z,3.47
2022-10-11T09:45:49.700Z,3.45
2022-10-11T09:48:29.228Z,3.88
2022-10-11T09:51:02.367Z,4.00
2022-10-11T09:53:48.184Z,3.55
2022-10-11T09:56:15.343Z,3.30
2022-10-11T09:58:42.498Z,4.13
2022-10-11T10:01:11.412Z,3.65
2022-10-11T10:03:39.858Z,4.18
2022-10-11T10:06:17.626Z,4.32
2022-10-11T10:08:47.184Z,3.55
2022-10-11T10:11:14.959Z,3.20
2022-10-11T10:13:42.058Z,3.72
2022-10-11T10:16:19.051Z,3.40
2022-10-11T10:18:54.184Z,3.42
2022-10-11T10:21:32.602Z,3.28
2022-10-11T10:24:03.245Z,3.58
2022-10-11T10:26:31.236Z,3.92
2022-10-11T10:29:03.454Z,3.70
2022-10-11T10:31:49.174Z,3.42
2022-10-11T10:34:24.534Z,3.55
2022-10-11T10:36:56.973Z,3.97
2022-10-11T10:39:34.738Z,3.70
2022-10-11T10:42:04.459Z,3.50
2022-10-11T10:44:31.753Z,4.30
2022-10-11T10:47:19.427Z,4.15
2022-10-11T10:49:54.503Z,4.00
2022-10-11T10:52:52.759Z,3.88
2022-10-11T10:55:29.134Z,4.13
2022-10-11T10:58:07.085Z,3.90
2022-10-11T11:00:40.643Z,4.15
2022-10-11T11:03:10.846Z,4.72
2022-10-11T11:05:48.365Z,4.03
2022-10-11T11:08:18.310Z,4.22
2022-10-11T11:11:11.534Z,4.20
2022-10-11T11:13:44.617Z,4.55
2022-10-11T11:16:27.007Z,4.38
2022-10-11T11:19:00.383Z,4.28
2022-10-11T11:21:27.522Z,4.03
2022-10-11T11:24:13.520Z,4.78
2022-10-11T11:26:59.358Z,4.20
2022-10-11T11:29:41.154Z,3.75
2022-10-11T11:32:21.795Z,4.03
2022-10-11T11:34:53.088Z,3.78
2022-10-11T11:37:29.418Z,3.70
2022-10-11T11:39:59.796Z,3.63
2022-10-11T11:42:26.883Z,3.40
2022-10-11T11:44:54.243Z,3.83
2022-10-11T11:47:21.323Z,4.05
2022-10-11T11:50:08.941Z,3.58
2022-10-11T11:52:37.994Z,4.20
2022-10-11T11:55:11.251Z,3.65
2022-10-11T11:57:57.007Z,3.42
2022-10-11T12:00:26.151Z,3.25
2022-10-11T12:02:58.070Z,4.43
2022-10-11T12:05:27.549Z,4.10
2022-10-11T12:07:57.244Z,3.40
2022-10-11T12:10:24.517Z,3.15
2022-10-11T12:13:02.483Z,3.78
2022-10-11T12:15:29.659Z,3.42
2022-10-11T12:17:57.053Z,3.15
2022-10-11T12:20:25.752Z,3.60
2022-10-11T12:23:19.784Z,3.33
2022-10-11T12:26:07.207Z,3.40
2022-10-11T12:28:37.418Z,3.22
2022-10-11T12:31:06.062Z,3.60
2022-10-11T12:33:33.488Z,3.60
2022-10-11T12:36:22.781Z,3.47
2022-10-11T12:39:10.061Z,4.05
2022-10-11T12:41:39.046Z,3.67
2022-10-11T12:44:20.404Z,3.53
2022-10-11T12:46:53.723Z,3.53
2022-10-11T12:49:27.121Z,3.45
2022-10-11T12:52:03.490Z,4.50
2022-10-11T12:54:34.612Z,3.03
2022-10-11T12:57:12.356Z,4.00
2022-10-11T12:59:45.119Z,3.22
2022-10-11T13:02:28.811Z,4.25
2022-10-11T13:05:16.220Z,4.38
2022-10-11T13:07:43.728Z,3.72
2022-10-11T13:10:15.458Z,4.07
2022-10-11T13:12:43.919Z,3.33
2022-10-11T13:15:16.206Z,3.22
2022-10-11T13:17:44.254Z,4.20
2022-10-11T13:20:17.855Z,3.42
2022-10-11T13:22:47.474Z,3.25
2022-10-11T13:25:22.116Z,3.40
2022-10-11T13:27:50.374Z,4.50
2022-10-11T13:30:23.973Z,4.13
2022-10-11T13:32:52.128Z,4.07
2022-10-11T13:35:26.384Z,4.07
2022-10-11T13:37:53.527Z,4.13
2022-10-11T13:40:21.974Z,3.40
2022-10-11T13:42:50.221Z,3.88
2022-10-11T13:45:20.078Z,3.60
2022-10-11T13:47:48.649Z,3.95
2022-10-11T13:50:16.028Z,5.10
2022-10-11T13:53:09.886Z,3.53
2022-10-11T13:55:44.503Z,5.30
2022-10-11T13:58:22.064Z,4.50
2022-10-11T14:01:00.292Z,3.53
2022-10-11T14:03:36.207Z,4.00
2022-10-11T14:06:03.960Z,4.28
2022-10-11T14:08:31.275Z,4.00
2022-10-11T14:11:02.493Z,4.30
2022-10-11T14:13:38.245Z,4.20
2022-10-11T14:16:05.576Z,4.80
2022-10-11T14:18:37.367Z,4.38
2022-10-11T14:21:19.904Z,4.75
2022-10-11T14:23:47.809Z,4.68
2022-10-11T14:26:18.653Z,5.28
2022-10-11T14:28:46.491Z,4.43
2022-10-11T14:31:13.686Z,5.65
2022-10-11T14:33:40.791Z,6.10
2022-10-11T14:36:08.569Z,6.00
2022-10-11T14:38:35.935Z,6.10
2022-10-11T14:41:03.035Z,5.55
2022-10-11T14:43:30.229Z,5.65
2022-10-11T14:45:57.397Z,6.32
2022-10-11T14:48:50.178Z,6.30
2022-10-11T14:51:13.419Z,5.80
2022-10-11T14:53:46.145Z,6.22
2022-10-11T14:56:21.843Z,5.47
2022-10-11T14:58:49.380Z,5.97
2022-10-11T15:01:17.293Z,6.45
2022-10-11T15:03:44.782Z,6.40
2022-10-11T15:06:32.377Z,6.78
2022-10-11T15:08:59.574Z,6.05
2022-10-11T15:11:27.353Z,6.55
2022-10-11T15:13:54.707Z,6.00
2022-10-11T15:16:22.296Z,6.75
2022-10-11T15:18:51.894Z,6.88
2022-10-11T15:21:23.456Z,5.53
2022-10-11T15:23:51.194Z,6.82
2022-10-11T15:26:19.602Z,6.63
2022-10-11T15:28:47.348Z,6.15
2022-10-11T15:31:14.671Z,6.85
2022-10-11T15:33:42.162Z,5.95
2022-10-11T15:36:12.043Z,6.28
2022-10-11T15:38:39.161Z,6.15
2022-10-11T15:41:06.371Z,5.50
2022-10-11T15:43:34.075Z,6.60
2022-10-11T15:46:03.134Z,6.07
2022-10-11T15:48:30.711Z,6.15
2022-10-11T15:50:58.680Z,6.18
2022-10-11T15:53:28.625Z,6.97
2022-10-11T15:55:56.747Z,6.93
2022-10-11T15:58:31.154Z,8.68
2022-10-11T16:01:00.610Z,6.20
2022-10-11T16:03:28.902Z,6.05
2022-10-11T16:05:58.875Z,6.50
2022-10-11T16:08:28.594Z,6.28
2022-10-11T16:10:55.807Z,6.07
2022-10-11T16:13:23.053Z,6.97
2022-10-11T16:15:50.353Z,6.13
2022-10-11T16:18:18.963Z,6.32
2022-10-11T16:20:47.385Z,5.57
2022-10-11T16:23:14.931Z,6.40
2022-10-11T16:25:42.436Z,6.90
2022-10-11T16:28:10.384Z,6.18
2022-10-11T16:30:43.162Z,6.07
2022-10-11T16:33:10.412Z,6.38
2022-10-11T16:35:41.410Z,5.78
2022-10-11T16:38:08.825Z,6.00
2022-10-11T16:40:37.339Z,6.07
2022-10-11T16:43:07.838Z,5.22
2022-10-11T16:45:35.725Z,6.38
2022-10-11T16:48:03.132Z,6.43
2022-10-11T16:50:31.158Z,5.28
2022-10-11T16:52:59.567Z,5.90
2022-10-11T16:55:26.748Z,6.22
2022-10-11T16:57:53.841Z,6.90
2022-10-11T17:00:21.294Z,6.97
2022-10-11T17:02:48.446Z,9.60
2022-10-11T17:05:15.673Z,9.18
2022-10-11T17:07:43.520Z,8.25
2022-10-11T17:10:10.768Z,6.28
2022-10-11T17:12:38.676Z,6.95
2022-10-11T17:15:06.118Z,6.78
2022-10-11T17:17:33.295Z,6.32
2022-10-11T17:20:02.274Z,5.85
2022-10-11T17:22:29.397Z,6.40
2022-10-11T17:24:56.878Z,6.45
2022-10-11T17:27:23.997Z,6.20
2022-10-11T17:29:51.106Z,6.22
2022-10-11T17:32:18.273Z,6.22
2022-10-11T17:34:45.406Z,6.55
2022-10-11T17:37:12.687Z,8.68
2022-10-11T17:39:40.256Z,6.95
2022-10-11T17:42:07.599Z,7.35
2022-10-11T17:44:37.817Z,6.70
2022-10-11T17:47:05.044Z,7.50
2022-10-11T17:49:32.236Z,8.00
2022-10-11T17:51:59.354Z,8.30
2022-10-11T17:54:26.794Z,7.03
2022-10-11T17:56:54.576Z,7.47
2022-10-11T17:59:21.855Z,9.00
2022-10-11T18:01:50.192Z,8.77
2022-10-11T18:04:17.870Z,9.93
2022-10-11T18:06:46.144Z,8.75
2022-10-11T18:09:14.500Z,8.43
2022-10-11T18:11:41.662Z,8.40
2022-10-11T18:14:08.918Z,9.75
2022-10-11T18:16:36.682Z,8.55
2022-10-11T18:19:13.666Z,9.57
2022-10-11T18:21:41.067Z,9.48
2022-10-11T18:24:15.996Z,9.38
2022-10-11T18:29:10.848Z,9.80
2022-10-11T18:31:38.035Z,10.25
2022-10-11T18:34:05.821Z,9.73
2022-10-11T18:36:33.346Z,9.65
2022-10-11T18:39:01.909Z,9.10
2022-10-11T18:41:32.937Z,9.90
2022-10-11T18:44:05.124Z,11.32
2022-10-11T18:46:32.459Z,9.90
2022-10-11T18:49:01.630Z,10.10
2022-10-11T18:51:33.823Z,10.60
2022-10-11T18:54:01.504Z,10.65
2022-10-11T18:56:29.618Z,10.88
2022-10-11T18:58:57.647Z,9.95
2022-10-11T19:01:29.392Z,10.52
2022-10-11T19:03:57.518Z,9.68
2022-10-11T19:06:26.038Z,10.82
2022-10-11T19:08:54.610Z,10.75
2022-10-11T19:11:22.335Z,11.07
2022-10-11T19:14:11.096Z,11.65
2022-10-11T19:16:40.507Z,11.25
2022-10-11T19:19:17.197Z,11.95
2022-10-11T19:21:44.986Z,10.13
2022-10-11T19:24:12.196Z,11.25
2022-10-11T19:26:40.701Z,12.88
2022-10-11T19:29:14.951Z,11.88
2022-10-11T19:31:44.477Z,11.60
2022-10-11T19:34:11.892Z,11.23
2022-10-11T19:36:41.773Z,10.48
2022-10-11T19:39:10.655Z,11.25
2022-10-11T19:41:38.047Z,11.50
2022-10-11T19:44:05.307Z,11.65
2022-10-11T19:46:50.335Z,10.90
2022-10-11T19:49:20.393Z,12.57
2022-10-11T19:51:47.724Z,12.73
2022-10-11T19:54:15.173Z,11.73
2022-10-11T19:56:42.660Z,12.90
2022-10-11T19:59:10.691Z,12.30
2022-10-11T20:01:38.420Z,11.05
2022-10-11T20:04:07.233Z,12.43
2022-10-11T20:06:38.348Z,11.38
2022-10-11T20:09:27.845Z,11.60
2022-10-11T20:11:54.188Z,12.02
2022-10-11T20:14:21.415Z,11.27
2022-10-11T20:16:50.373Z,12.05
2022-10-11T20:19:17.582Z,11.77
2022-10-11T20:21:45.290Z,12.30
2022-10-11T20:24:12.935Z,13.20
2022-10-11T20:26:40.175Z,11.88
2022-10-11T20:29:07.615Z,11.38
2022-10-11T20:31:38.205Z,11.00
2022-10-11T20:34:07.230Z,12.93
2022-10-11T20:36:36.116Z,11.00
2022-10-11T20:39:04.423Z,11.82
2022-10-11T20:41:42.884Z,11.20
2022-10-11T20:44:12.347Z,12.57
2022-10-11T20:46:39.871Z,12.65
2022-10-11T20:49:11.230Z,14.35
2022-10-11T20:51:39.403Z,11.25
2022-10-11T20:54:07.578Z,13.30
2022-10-11T20:56:35.189Z,11.75
2022-10-11T20:59:02.539Z,14.23
2022-10-11T21:01:31.242Z,12.73
2022-10-11T21:03:59.198Z,13.98
2022-10-11T21:06:26.807Z,13.23
2022-10-11T21:08:55.394Z,12.43
2022-10-11T21:11:24.891Z,14.32
2022-10-11T21:13:55.309Z,14.15
2022-10-11T21:16:22.646Z,14.02
2022-10-11T21:18:53.575Z,14.02
2022-10-11T21:21:21.143Z,12.20
2022-10-11T21:23:48.447Z,13.40
2022-10-11T21:26:19.031Z,14.40
2022-10-11T21:28:46.871Z,13.75
2022-10-11T21:31:15.389Z,14.35
2022-10-11T21:33:43.246Z,13.73
2022-10-11T21:36:11.795Z,13.55
2022-10-11T21:38:39.019Z,14.73
2022-10-11T21:41:16.679Z,13.50
2022-10-11T21:43:44.165Z,14.00
2022-10-11T21:46:12.507Z,13.60
2022-10-11T21:48:39.881Z,14.35
2022-10-11T21:51:07.021Z,14.27
2022-10-11T21:53:34.649Z,15.27
2022-10-11T21:56:01.922Z,15.60
2022-10-11T21:58:29.338Z,14.43
2022-10-11T22:00:56.526Z,16.08
2022-10-11T22:03:23.733Z,15.13
2022-10-11T22:05:50.971Z,15.63
2022-10-11T22:08:18.242Z,14.65
2022-10-11T22:10:46.183Z,14.60
2022-10-11T22:13:13.332Z,14.40
2022-10-11T22:15:40.570Z,14.18
2022-10-11T22:18:07.772Z,14.02
2022-10-11T22:20:34.978Z,13.57
2022-10-11T22:23:02.148Z,14.68
2022-10-11T22:25:30.585Z,15.60
2022-10-11T22:27:57.817Z,14.60
2022-10-11T22:30:24.907Z,15.43
2022-10-11T22:32:52.484Z,15.80
2022-10-11T22:35:19.910Z,14.80
2022-10-11T22:37:47.035Z,16.23
2022-10-11T22:40:14.201Z,16.10
2022-10-11T22:42:41.355Z,14.15
2022-10-11T22:45:08.683Z,15.60
2022-10-11T22:47:36.215Z,15.07
2022-10-11T22:50:03.617Z,15.20
2022-10-11T22:52:30.905Z,15.55
2022-10-11T22:54:58.019Z,14.10
2022-10-11T22:57:25.251Z,14.45
2022-10-11T22:59:52.419Z,15.80
2022-10-11T23:02:19.516Z,16.45
2022-10-11T23:04:46.606Z,15.80
2022-10-11T23:07:13.694Z,15.65
2022-10-11T23:09:40.821Z,15.25
2022-10-11T23:12:08.136Z,15.27
2022-10-11T23:14:35.304Z,16.42
2022-10-11T23:17:02.443Z,14.40
2022-10-11T23:19:29.638Z,17.38
2022-10-11T23:21:56.732Z,15.93
2022-10-11T23:24:23.946Z,17.58
2022-10-11T23:26:51.092Z,15.45
2022-10-11T23:29:18.236Z,16.25
2022-10-11T23:31:46.974Z,15.65
2022-10-11T23:34:14.697Z,15.88
2022-10-11T23:36:41.803Z,14.80
2022-10-11T23:39:11.094Z,16.23
2022-10-11T23:41:38.198Z,16.05
2022-10-11T23:44:05.610Z,15.70
2022-10-11T23:46:32.715Z,16.58
2022-10-11T23:48:59.913Z,15.50
2022-10-11T23:51:27.218Z,16.35
2022-10-11T23:53:54.436Z,16.48
2022-10-11T23:56:21.955Z,16.42
2022-10-11T23:58:49.112Z,15.65
